Time;durP1;ratioP1;P1;durP2;ratioP2;P2;SDS_P1;SDS_P2;PMS_P1;PMS_P2;Temp;Humidity;BMP_temperature;BMP_pressure;BME280_temperature;BME280_humidity;BME280_pressure;Samples;Min_cycle;Max_cycle;Signal;HPM_P1;HPM_P2
2021/07/17 00:01:22;;;;;;;19.63;8.18;;;17.90;99.90;;;;;;4896635;29;20481;-73
2021/07/17 00:03:48;;;;;;;20.23;8.95;;;17.90;99.90;;;;;;4961020;28;20036;-72
2021/07/17 00:06:14;;;;;;;21.95;8.50;;;17.90;99.90;;;;;;4896574;29;20056;-79
2021/07/17 00:08:40;;;;;;;18.05;6.93;;;17.90;99.90;;;;;;4961783;28;20050;-72
2021/07/17 00:11:05;;;;;;;15.85;7.63;;;17.90;99.90;;;;;;4896189;28;20021;-73
2021/07/17 00:13:31;;;;;;;20.00;7.68;;;17.90;99.90;;;;;;4896392;29;20385;-72
2021/07/17 00:15:57;;;;;;;21.58;8.38;;;17.90;99.90;;;;;;4961664;28;20032;-73
2021/07/17 00:18:23;;;;;;;21.05;8.35;;;17.90;99.90;;;;;;4895756;29;20106;-73
2021/07/17 00:20:49;;;;;;;24.02;8.38;;;17.90;99.90;;;;;;4961384;28;20072;-74
2021/07/17 00:23:16;;;;;;;19.77;8.27;;;17.90;99.90;;;;;;4960922;28;20111;-72
2021/07/17 00:25:43;;;;;;;18.10;8.05;;;17.90;99.90;;;;;;4896001;29;20039;-72
2021/07/17 00:28:08;;;;;;;24.35;8.10;;;17.90;99.90;;;;;;4961129;28;20483;-71
2021/07/17 00:30:34;;;;;;;20.63;8.48;;;17.90;99.90;;;;;;4896499;29;20064;-72
2021/07/17 00:33:00;;;;;;;20.70;8.02;;;17.80;99.90;;;;;;4895813;29;20389;-72
2021/07/17 00:35:26;;;;;;;22.52;8.35;;;17.80;99.90;;;;;;4895987;29;20037;-73
2021/07/17 00:37:51;;;;;;;26.63;9.10;;;17.80;99.90;;;;;;4896377;29;20100;-72
2021/07/17 00:40:20;;;;;;;21.75;7.82;;;17.70;99.90;;;;;;4960280;28;20037;-72
2021/07/17 00:42:50;;;;;;;23.00;7.93;;;17.70;99.90;;;;;;4895813;29;20017;-73
2021/07/17 00:45:17;;;;;;;17.02;7.95;;;17.70;99.90;;;;;;4895867;29;20061;-72
2021/07/17 00:47:43;;;;;;;21.90;7.88;;;17.70;99.90;;;;;;4896181;28;20032;-73
2021/07/17 00:50:12;;;;;;;17.42;8.20;;;17.70;99.90;;;;;;4895950;29;20021;-72
2021/07/17 00:52:39;;;;;;;23.08;7.60;;;17.70;99.90;;;;;;4895509;29;20155;-72
2021/07/17 00:55:07;;;;;;;26.33;8.32;;;17.70;99.90;;;;;;4896084;29;20051;-73
2021/07/17 00:57:33;;;;;;;18.00;7.45;;;17.70;99.90;;;;;;4960819;28;20025;-72
2021/07/17 01:00:02;;;;;;;22.33;8.70;;;17.70;99.90;;;;;;4960084;28;20571;-73
2021/07/17 01:02:34;;;;;;;19.92;8.52;;;17.60;99.90;;;;;;4895758;29;20078;-73
2021/07/17 01:04:59;;;;;;;;;;;17.60;99.90;;;;;;4961110;28;20052;-72
2021/07/17 01:07:25;;;;;;;23.50;8.25;;;17.60;99.90;;;;;;4895062;29;19961;-72
2021/07/17 01:09:52;;;;;;;28.00;8.20;;;17.50;99.90;;;;;;4895984;29;20116;-79
2021/07/17 01:12:18;;;;;;;24.33;7.88;;;17.50;99.90;;;;;;4960318;28;20567;-72
2021/07/17 01:14:44;;;;;;;22.35;7.95;;;17.50;99.90;;;;;;4895125;29;20444;-72
2021/07/17 01:17:11;;;;;;;21.70;8.25;;;17.50;99.90;;;;;;4895713;29;20036;-73
2021/07/17 01:19:37;;;;;;;21.25;8.23;;;17.50;99.90;;;;;;4960605;28;20377;-73
2021/07/17 01:22:03;;;;;;;22.50;9.02;;;17.50;99.90;;;;;;4895044;29;20032;-73
2021/07/17 01:24:28;;;;;;;15.73;7.45;;;17.50;99.90;;;;;;4959774;28;20052;-72
2021/07/17 01:26:54;;;;;;;20.70;8.38;;;17.50;99.90;;;;;;4895972;29;20032;-72
2021/07/17 01:29:20;;;;;;;19.27;7.28;;;17.50;99.90;;;;;;4894870;29;20420;-73
2021/07/17 01:31:45;;;;;;;19.58;8.52;;;17.50;99.90;;;;;;4960407;28;20393;-73
2021/07/17 01:34:11;;;;;;;17.00;7.57;;;17.40;99.90;;;;;;4895185;29;20032;-73
2021/07/17 01:36:37;;;;;;;21.08;8.13;;;17.40;99.90;;;;;;4959310;28;20110;-74
2021/07/17 01:39:04;;;;;;;18.38;7.60;;;17.30;99.90;;;;;;4895565;29;20171;-73
2021/07/17 01:41:30;;;;;;;22.35;8.43;;;17.30;99.90;;;;;;4959702;28;20037;-73
2021/07/17 01:43:57;;;;;;;20.83;8.00;;;17.20;99.90;;;;;;4894815;29;20495;-73
2021/07/17 01:46:23;;;;;;;21.02;8.13;;;17.20;99.90;;;;;;4959940;28;20028;-73
2021/07/17 01:48:51;;;;;;;18.58;8.27;;;17.20;99.90;;;;;;4959243;28;20031;-73
2021/07/17 01:51:17;;;;;;;21.33;8.82;;;17.20;99.90;;;;;;4895123;28;20025;-74
2021/07/17 01:53:42;;;;;;;19.25;8.30;;;17.20;99.90;;;;;;4958948;28;20068;-73
2021/07/17 01:56:08;;;;;;;20.10;8.25;;;17.30;99.90;;;;;;4893218;28;20039;-75
2021/07/17 01:58:34;;;;;;;21.85;8.82;;;17.20;99.90;;;;;;4894640;29;20025;-73
2021/07/17 02:00:59;;;;;;;17.42;7.65;;;17.20;99.90;;;;;;4894760;29;20032;-72
2021/07/17 02:03:25;;;;;;;15.00;7.65;;;17.20;99.90;;;;;;4957790;28;20028;-73
2021/07/17 02:05:51;;;;;;;21.60;7.85;;;17.10;99.90;;;;;;4894517;29;20035;-72
2021/07/17 02:08:16;;;;;;;20.02;7.72;;;17.10;99.90;;;;;;4894099;29;20111;-73
2021/07/17 02:10:42;;;;;;;25.48;8.23;;;17.10;99.90;;;;;;4893701;29;20082;-73
2021/07/17 02:13:12;;;;;;;18.73;7.70;;;17.10;99.90;;;;;;4894149;29;20037;-73
2021/07/17 02:15:46;;;;;;;19.15;7.93;;;17.10;99.90;;;;;;4894527;29;20029;-72
2021/07/17 02:18:15;;;;;;;22.13;8.77;;;17.10;99.90;;;;;;4893550;28;20028;-73
2021/07/17 02:20:42;;;;;;;15.55;7.75;;;17.10;99.90;;;;;;4958840;28;20028;-73
2021/07/17 02:23:09;;;;;;;24.98;8.25;;;17.10;99.90;;;;;;4958425;28;20017;-72
2021/07/17 02:25:35;;;;;;;18.35;7.90;;;17.10;99.90;;;;;;4958212;28;20028;-72
2021/07/17 02:28:01;;;;;;;18.17;7.43;;;17.10;99.90;;;;;;4894169;29;20417;-72
2021/07/17 02:30:27;;;;;;;20.98;7.80;;;17.10;99.90;;;;;;4958379;28;20522;-72
2021/07/17 02:32:53;;;;;;;17.35;7.78;;;17.10;99.90;;;;;;4893691;29;20479;-76
2021/07/17 02:35:19;;;;;;;22.95;8.75;;;17.10;99.90;;;;;;4958592;28;20047;-72
2021/07/17 02:37:45;;;;;;;21.83;7.90;;;17.10;99.90;;;;;;4958500;28;20025;-72
2021/07/17 02:40:11;;;;;;;24.98;8.35;;;17.00;99.90;;;;;;4893163;29;20116;-72
2021/07/17 02:42:36;;;;;;;19.27;7.88;;;17.00;99.90;;;;;;4958497;28;20036;-72
2021/07/17 02:45:04;;;;;;;17.92;7.72;;;17.00;99.90;;;;;;4893510;29;20473;-73
2021/07/17 02:47:30;;;;;;;20.90;7.93;;;16.90;99.90;;;;;;4958269;28;20032;-72
2021/07/17 02:49:55;;;;;;;23.00;8.25;;;16.90;99.90;;;;;;4894074;29;20548;-72
2021/07/17 02:52:21;;;;;;;20.60;7.85;;;16.90;99.90;;;;;;4922684;28;1031051;-72
2021/07/17 02:54:46;;;;;;;26.45;8.77;;;16.90;99.90;;;;;;4894645;29;20548;-79
2021/07/17 02:57:12;;;;;;;21.10;8.52;;;17.00;99.90;;;;;;4894446;29;20023;-72
2021/07/17 02:59:37;;;;;;;21.42;7.97;;;17.00;99.90;;;;;;4893918;29;20425;-72
2021/07/17 03:02:03;;;;;;;18.42;8.32;;;17.00;99.90;;;;;;4894707;29;20374;-72
2021/07/17 03:04:29;;;;;;;19.95;7.63;;;16.90;99.90;;;;;;4894218;29;20036;-77
2021/07/17 03:06:55;;;;;;;21.27;8.20;;;16.80;99.90;;;;;;4894876;28;20044;-73
2021/07/17 03:09:21;;;;;;;24.45;9.02;;;16.70;99.90;;;;;;4897446;28;20425;-71
2021/07/17 03:11:46;;;;;;;21.23;7.75;;;16.60;99.90;;;;;;4897622;29;20108;-72
2021/07/17 03:14:12;;;;;;;23.25;9.20;;;16.50;99.90;;;;;;4896622;29;20485;-73
2021/07/17 03:16:38;;;;;;;20.45;8.07;;;16.40;99.90;;;;;;4897917;29;20477;-73
2021/07/17 03:19:04;;;;;;;24.25;8.30;;;16.30;99.90;;;;;;4897648;29;20029;-72
2021/07/17 03:21:30;;;;;;;24.05;8.68;;;16.30;99.90;;;;;;4961852;28;20028;-85
2021/07/17 03:23:56;;;;;;;17.45;7.80;;;16.30;99.90;;;;;;4962344;28;20029;-73
2021/07/17 03:26:22;;;;;;;23.70;7.75;;;16.30;99.90;;;;;;4897220;29;20029;-72
2021/07/17 03:28:48;;;;;;;20.27;8.93;;;16.20;99.90;;;;;;4896745;29;20111;-74
2021/07/17 03:31:13;;;;;;;21.92;7.97;;;16.20;99.90;;;;;;4897091;29;20454;-73
2021/07/17 03:33:39;;;;;;;22.58;8.02;;;16.20;99.90;;;;;;4962047;28;20561;-72
2021/07/17 03:36:04;;;;;;;25.30;7.70;;;16.10;99.90;;;;;;4961523;28;20064;-72
2021/07/17 03:38:30;;;;;;;16.60;7.80;;;16.00;99.90;;;;;;4961750;28;20029;-73
2021/07/17 03:40:56;;;;;;;19.33;8.35;;;15.90;99.90;;;;;;4962212;28;20377;-72
2021/07/17 03:43:21;;;;;;;22.95;9.43;;;15.90;99.90;;;;;;4896317;29;20060;-72
2021/07/17 03:45:47;;;;;;;21.55;8.98;;;15.80;99.90;;;;;;4962393;28;20551;-72
2021/07/17 03:48:12;;;;;;;22.50;8.55;;;15.70;99.90;;;;;;4960968;28;20025;-72
2021/07/17 03:50:38;;;;;;;15.48;7.60;;;15.70;99.90;;;;;;4962094;28;20025;-72
2021/07/17 03:53:04;;;;;;;26.95;8.18;;;15.70;99.90;;;;;;4896883;29;20134;-72
2021/07/17 03:55:30;;;;;;;22.88;8.05;;;15.60;99.90;;;;;;4896064;28;20134;-73
2021/07/17 03:57:56;;;;;;;19.85;8.25;;;15.60;99.90;;;;;;4896988;28;20063;-72
2021/07/17 04:00:21;;;;;;;21.55;8.57;;;15.50;99.90;;;;;;4896703;29;20114;-72
2021/07/17 04:02:47;;;;;;;25.02;9.57;;;15.50;99.90;;;;;;4896295;29;20028;-72
2021/07/17 04:05:15;;;;;;;20.45;8.52;;;15.50;99.90;;;;;;4896480;29;20028;-72
2021/07/17 04:07:41;;;;;;;22.90;8.30;;;15.50;99.90;;;;;;4896976;28;20119;-72
2021/07/17 04:10:09;;;;;;;20.50;8.57;;;15.50;99.90;;;;;;4896159;29;20108;-72
2021/07/17 04:12:34;;;;;;;16.08;6.82;;;15.40;99.90;;;;;;4897040;29;20112;-71
2021/07/17 04:15:00;;;;;;;15.13;7.00;;;15.40;99.90;;;;;;4896649;29;20032;-72
2021/07/17 04:17:26;;;;;;;16.75;7.25;;;15.40;99.90;;;;;;4895819;29;20021;-72
2021/07/17 04:19:53;;;;;;;27.15;8.52;;;15.40;99.90;;;;;;4961523;28;20025;-72
2021/07/17 04:22:19;;;;;;;18.75;7.75;;;15.40;99.90;;;;;;4896303;29;20123;-71
2021/07/17 04:24:44;;;;;;;18.65;7.78;;;15.40;99.90;;;;;;4896213;29;20033;-71
2021/07/17 04:27:10;;;;;;;21.27;8.55;;;15.40;99.90;;;;;;4896340;29;20369;-72
2021/07/17 04:29:36;;;;;;;21.70;8.48;;;15.40;99.90;;;;;;4896518;29;20029;-72
2021/07/17 04:32:02;;;;;;;20.77;8.63;;;15.40;99.90;;;;;;4895873;29;20020;-72
2021/07/17 04:34:28;;;;;;;23.17;8.30;;;15.40;99.90;;;;;;4896055;29;20400;-72
2021/07/17 04:36:54;;;;;;;21.13;8.20;;;15.40;99.90;;;;;;4961270;28;20024;-71
2021/07/17 04:39:19;;;;;;;19.60;8.85;;;15.40;99.90;;;;;;4895448;29;20024;-72
2021/07/17 04:41:45;;;;;;;26.27;8.18;;;15.40;99.90;;;;;;4961441;28;20040;-73
2021/07/17 04:44:10;;;;;;;22.75;8.32;;;15.40;99.90;;;;;;4896029;29;20033;-72
2021/07/17 04:46:36;;;;;;;18.58;7.60;;;15.40;99.90;;;;;;4895648;29;20031;-71
2021/07/17 04:49:01;;;;;;;20.80;7.90;;;15.40;99.90;;;;;;4896261;29;20029;-72
2021/07/17 04:51:27;;;;;;;21.00;8.82;;;15.40;99.90;;;;;;4960353;28;20028;-72
2021/07/17 04:53:52;;;;;;;20.10;7.82;;;15.40;99.90;;;;;;4960102;28;20044;-73
2021/07/17 04:56:18;;;;;;;17.33;7.82;;;15.40;99.90;;;;;;4896105;28;20100;-71
2021/07/17 04:58:44;;;;;;;27.27;8.50;;;15.40;99.90;;;;;;4959909;28;20083;-72
2021/07/17 05:01:09;;;;;;;22.80;8.13;;;15.40;99.90;;;;;;4895914;29;20068;-71
2021/07/17 05:03:35;;;;;;;16.35;8.18;;;15.40;99.90;;;;;;4960625;28;20036;-72
2021/07/17 05:06:02;;;;;;;17.27;8.65;;;15.40;99.90;;;;;;4895679;28;20032;-72
2021/07/17 05:08:27;;;;;;;19.98;8.07;;;15.40;99.90;;;;;;4895677;29;20182;-72
2021/07/17 05:10:53;;;;;;;22.48;8.95;;;15.40;99.90;;;;;;4895889;29;20500;-79
2021/07/17 05:13:18;;;;;;;24.60;8.43;;;15.40;99.90;;;;;;4959403;28;20046;-73
2021/07/17 05:15:44;;;;;;;17.70;8.50;;;15.40;99.90;;;;;;4895937;29;20051;-72
2021/07/17 05:18:13;;;;;;;19.65;8.93;;;15.40;99.90;;;;;;4895692;29;20028;-72
2021/07/17 05:20:42;;;;;;;20.65;8.40;;;15.40;99.90;;;;;;4959762;28;20025;-73
2021/07/17 05:23:09;;;;;;;16.80;7.93;;;15.50;99.90;;;;;;4895467;29;20049;-72
2021/07/17 05:25:36;;;;;;;20.60;8.10;;;15.50;99.90;;;;;;4960643;28;20025;-71
2021/07/17 05:28:01;;;;;;;14.60;7.80;;;15.50;99.90;;;;;;4895107;29;20029;-72
2021/07/17 05:30:27;;;;;;;21.13;8.60;;;15.60;99.90;;;;;;4959441;28;20394;-72
2021/07/17 05:32:52;;;;;;;20.42;9.68;;;15.60;99.90;;;;;;4895685;29;20412;-72
2021/07/17 05:35:18;;;;;;;21.25;9.00;;;15.60;99.90;;;;;;4894509;29;20484;-72
2021/07/17 05:37:44;;;;;;;20.50;8.25;;;15.70;99.90;;;;;;4895633;29;20020;-72
2021/07/17 05:40:10;;;;;;;19.05;8.25;;;15.70;99.90;;;;;;4959632;28;20039;-71
2021/07/17 05:42:36;;;;;;;19.27;8.60;;;15.70;99.90;;;;;;4895019;29;20025;-73
2021/07/17 05:45:02;;;;;;;16.25;7.25;;;15.80;99.90;;;;;;4895468;29;20055;-73
2021/07/17 05:47:29;;;;;;;19.63;8.25;;;15.80;99.90;;;;;;4895220;29;20039;-72
2021/07/17 05:49:55;;;;;;;21.85;7.30;;;15.80;99.90;;;;;;4894858;29;20025;-72
2021/07/17 05:52:20;;;;;;;20.13;7.85;;;15.90;99.90;;;;;;4894966;29;20497;-72
2021/07/17 05:54:46;;;;;;;19.50;7.68;;;16.00;99.90;;;;;;4894828;29;20115;-72
2021/07/17 05:57:11;;;;;;;19.83;7.43;;;16.00;99.90;;;;;;4894927;29;20086;-72
2021/07/17 05:59:37;;;;;;;15.27;7.65;;;16.10;99.90;;;;;;4895217;29;20450;-72
2021/07/17 06:02:06;;;;;;;16.05;6.82;;;16.20;99.90;;;;;;4894871;29;20377;-72
2021/07/17 06:04:32;;;;;;;18.40;6.93;;;16.30;99.90;;;;;;4894863;29;20036;-72
2021/07/17 06:06:58;;;;;;;18.35;7.47;;;16.40;99.90;;;;;;4895495;28;20139;-72
2021/07/17 06:09:24;;;;;;;18.73;7.57;;;16.50;99.90;;;;;;4958634;28;20477;-72
2021/07/17 06:11:50;;;;;;;17.00;6.30;;;16.60;99.90;;;;;;4895209;28;20039;-72
2021/07/17 06:14:15;;;;;;;17.30;6.18;;;16.60;99.90;;;;;;4894617;29;20508;-72
2021/07/17 06:16:41;;;;;;;16.13;5.82;;;16.70;99.90;;;;;;4958931;28;20017;-72
2021/07/17 06:19:07;;;;;;;13.80;6.10;;;16.80;99.90;;;;;;4895200;28;20021;-72
2021/07/17 06:21:33;;;;;;;13.15;5.57;;;16.90;99.90;;;;;;4959737;28;20025;-72
2021/07/17 06:23:58;;;;;;;13.15;6.05;;;17.00;99.90;;;;;;4894156;29;20033;-72
2021/07/17 06:26:24;;;;;;;16.42;5.40;;;17.10;99.90;;;;;;4959283;28;20032;-72
2021/07/17 06:28:50;;;;;;;17.45;6.00;;;17.30;99.90;;;;;;4895050;29;20469;-72
2021/07/17 06:31:16;;;;;;;12.40;5.45;;;17.30;99.90;;;;;;4894018;29;20100;-77
2021/07/17 06:33:43;;;;;;;13.38;5.75;;;17.40;99.90;;;;;;4894923;28;20025;-72
2021/07/17 06:36:09;;;;;;;19.00;7.20;;;17.60;99.90;;;;;;4894701;29;20472;-72
2021/07/17 06:38:35;;;;;;;15.43;5.43;;;17.70;99.90;;;;;;4894195;29;20028;-73
2021/07/17 06:41:01;;;;;;;13.77;6.03;;;17.80;99.90;;;;;;4959302;28;20400;-72
2021/07/17 06:43:28;;;;;;;11.70;4.72;;;18.00;99.90;;;;;;4897587;28;20025;-72
2021/07/17 06:45:53;;;;;;;14.32;5.97;;;18.00;99.90;;;;;;4897485;29;20462;-72
2021/07/17 06:48:19;;;;;;;15.07;5.55;;;18.10;99.90;;;;;;4897744;29;20036;-72
2021/07/17 06:50:44;;;;;;;13.57;5.50;;;18.20;99.90;;;;;;4898839;29;20297;-83
2021/07/17 06:53:10;;;;;;;14.70;5.47;;;18.30;99.90;;;;;;4902400;29;20041;-74
2021/07/17 06:55:36;;;;;;;14.55;5.55;;;18.30;99.90;;;;;;4906561;29;20040;-71
2021/07/17 06:58:01;;;;;;;11.98;5.10;;;18.40;99.90;;;;;;4901655;29;20033;-70
2021/07/17 07:00:27;;;;;;;15.02;5.82;;;18.40;99.90;;;;;;4961829;28;20603;-92
2021/07/17 07:02:52;;;;;;;14.02;5.78;;;18.50;99.90;;;;;;4897954;29;20408;-70
2021/07/17 07:05:18;;;;;;;16.52;6.32;;;18.50;99.90;;;;;;4961866;28;20067;-71
2021/07/17 07:07:43;;;;;;;10.10;5.18;;;18.50;99.90;;;;;;4897320;29;20380;-71
2021/07/17 07:10:10;;;;;;;16.95;5.75;;;18.50;99.90;;;;;;4882707;29;20037;-71
2021/07/17 07:12:37;;;;;;;13.60;5.55;;;18.50;99.90;;;;;;4878157;28;20100;-71
2021/07/17 07:15:06;;;;;;;12.20;5.53;;;18.50;99.90;;;;;;4942802;29;20045;-71
2021/07/17 07:17:31;;;;;;;13.73;4.93;;;18.40;99.90;;;;;;4877715;28;20017;-72
2021/07/17 07:19:57;;;;;;;12.38;4.80;;;18.50;99.90;;;;;;4941638;29;20453;-70
2021/07/17 07:22:23;;;;;;;11.27;4.63;;;18.50;99.90;;;;;;4878188;29;20017;-71
2021/07/17 07:24:49;;;;;;;16.58;5.30;;;18.60;99.90;;;;;;4878218;28;20029;-71
2021/07/17 07:27:14;;;;;;;13.13;5.30;;;18.70;99.90;;;;;;4877207;29;20368;-72
2021/07/17 07:29:40;;;;;;;14.18;5.20;;;18.80;99.90;;;;;;4942740;29;20127;-74
2021/07/17 07:32:05;;;;;;;15.07;4.75;;;18.90;99.90;;;;;;4878317;29;20033;-73
2021/07/17 07:34:31;;;;;;;12.05;5.13;;;18.90;99.90;;;;;;4941437;29;20128;-71
2021/07/17 07:36:57;;;;;;;11.27;4.43;;;19.00;99.90;;;;;;4877944;29;20029;-72
2021/07/17 07:39:22;;;;;;;13.30;4.65;;;19.10;99.90;;;;;;4877480;29;20093;-69
2021/07/17 07:41:48;;;;;;;12.68;4.70;;;19.10;99.90;;;;;;4877387;29;20110;-69
2021/07/17 07:44:13;;;;;;;13.27;4.90;;;19.10;99.90;;;;;;4941612;29;20037;-75
2021/07/17 07:46:39;;;;;;;9.60;4.30;;;19.20;99.90;;;;;;4943783;28;20030;-82
2021/07/17 07:49:06;;;;;;;14.35;5.30;;;19.20;99.90;;;;;;4876714;28;20509;-74
2021/07/17 07:51:32;;;;;;;12.63;4.32;;;19.30;99.90;;;;;;4942383;29;20469;-71
2021/07/17 07:53:57;;;;;;;12.60;4.40;;;19.40;99.90;;;;;;4874340;29;20092;-72
2021/07/17 07:56:23;;;;;;;12.52;5.25;;;19.40;99.90;;;;;;4877060;29;20057;-73
2021/07/17 07:58:49;;;;;;;13.77;4.88;;;19.50;99.90;;;;;;4877556;29;20032;-75
2021/07/17 08:01:14;;;;;;;9.85;4.57;;;19.50;99.90;;;;;;4940813;28;20061;-77
2021/07/17 08:03:40;;;;;;;9.95;4.30;;;19.50;99.90;;;;;;4941900;28;20029;-77
2021/07/17 08:06:06;;;;;;;11.57;4.30;;;19.60;99.90;;;;;;4941253;29;20388;-75
2021/07/17 08:08:31;;;;;;;13.68;4.10;;;19.70;99.90;;;;;;4940270;28;20061;-77
2021/07/17 08:10:58;;;;;;;9.02;3.92;;;19.70;99.90;;;;;;4942313;28;20381;-75
2021/07/17 08:13:23;;;;;;;10.23;3.75;;;19.80;99.90;;;;;;4940779;28;20548;-72
2021/07/17 08:15:50;;;;;;;9.95;3.28;;;19.80;99.90;;;;;;4879349;29;20123;-70
2021/07/17 08:18:16;;;;;;;6.30;2.90;;;19.90;99.90;;;;;;4895463;29;20025;-72
2021/07/17 08:20:42;;;;;;;9.05;3.25;;;19.90;99.90;;;;;;4895649;28;20111;-73
2021/07/17 08:23:08;;;;;;;10.68;3.88;;;20.00;99.90;;;;;;4960426;28;20502;-72
2021/07/17 08:25:34;;;;;;;10.88;3.35;;;20.00;99.90;;;;;;4896036;29;20032;-69
2021/07/17 08:27:59;;;;;;;7.97;2.72;;;20.10;99.90;;;;;;4895321;29;20108;-71
2021/07/17 08:30:25;;;;;;;9.75;2.80;;;20.20;99.90;;;;;;4895738;29;20116;-70
2021/07/17 08:32:52;;;;;;;8.88;3.13;;;20.20;99.90;;;;;;4896158;29;20477;-70
2021/07/17 08:35:18;;;;;;;7.95;2.33;;;20.30;99.90;;;;;;4894590;29;20028;-69
2021/07/17 08:37:43;;;;;;;6.70;3.03;;;20.30;99.90;;;;;;4895988;29;20028;-69
2021/07/17 08:40:09;;;;;;;10.57;4.15;;;20.40;99.90;;;;;;4960276;28;20091;-70
2021/07/17 08:42:41;;;;;;;17.40;3.47;;;20.40;99.90;;;;;;4959959;28;20025;-76
2021/07/17 08:45:07;;;;;;;7.05;2.50;;;20.50;99.90;;;;;;4968481;28;20032;-79
2021/07/17 08:47:39;;;;;;;8.05;2.85;;;20.60;99.90;;;;;;4951624;28;20026;-74
2021/07/17 08:50:07;;;;;;;7.72;3.00;;;20.60;99.90;;;;;;4969594;28;20025;-72
2021/07/17 08:52:34;;;;;;;6.82;2.30;;;20.60;99.90;;;;;;4896098;29;20076;-72
2021/07/17 08:55:10;;;;;;;7.40;2.42;;;20.70;99.90;;;;;;4894726;29;20043;-77
2021/07/17 08:57:38;;;;;;;6.20;3.15;;;20.80;99.90;;;;;;4895761;29;20029;-74
2021/07/17 09:00:27;;;;;;;4.65;2.30;;;20.80;99.90;;;;;;4896141;29;20063;-76
2021/07/17 09:02:59;;;;;;;4.32;1.92;;;20.90;99.90;;;;;;4960132;28;20024;-77
2021/07/17 09:05:26;;;;;;;4.70;2.00;;;21.00;99.90;;;;;;4959282;28;20486;-72
2021/07/17 09:07:53;;;;;;;7.50;2.25;;;21.00;99.90;;;;;;4960442;28;20028;-76
2021/07/17 09:10:29;;;;;;;8.52;2.60;;;21.10;99.90;;;;;;4895050;29;20020;-76
2021/07/17 09:13:20;;;;;;;6.13;2.47;;;21.10;99.90;;;;;;4960739;28;20037;-88
2021/07/17 09:15:48;;;;;;;3.67;2.25;;;21.20;99.90;;;;;;4896190;29;20074;-71
2021/07/17 09:18:15;;;;;;;6.68;2.00;;;21.30;99.90;;;;;;4895145;29;20020;-71
2021/07/17 09:20:55;;;;;;;4.28;2.67;;;21.30;99.90;;;;;;4895919;29;20032;-72
2021/07/17 09:23:25;;;;;;;6.13;1.95;;;21.40;99.90;;;;;;4960137;28;20040;-71
2021/07/17 09:25:51;;;;;;;3.63;1.67;;;21.40;99.90;;;;;;4959814;28;20070;-71
2021/07/17 09:28:22;;;;;;;5.72;2.30;;;21.40;99.90;;;;;;4895534;29;20033;-72
2021/07/17 09:30:48;;;;;;;;;;;21.40;99.90;;;;;;4961039;28;20067;-78
2021/07/17 09:33:14;;;;;;;5.75;2.08;;;21.40;99.90;;;;;;4894601;29;19914;-71
2021/07/17 09:35:48;;;;;;;5.00;2.22;;;21.50;99.90;;;;;;4895652;29;20079;-71
2021/07/17 09:38:16;;;;;;;5.75;2.40;;;21.60;99.90;;;;;;4894733;29;20465;-79
2021/07/17 09:40:46;;;;;;;4.75;2.33;;;21.60;99.90;;;;;;4959979;28;20028;-72
2021/07/17 09:43:12;;;;;;;5.07;1.75;;;21.70;99.90;;;;;;4959701;28;20132;-83
2021/07/17 09:45:39;;;;;;;6.97;2.13;;;21.70;99.90;;;;;;4959406;28;20119;-71
2021/07/17 09:48:25;;;;;;;5.40;1.75;;;21.70;99.90;;;;;;4895325;29;20058;-71
2021/07/17 09:50:53;;;;;;;5.28;2.13;;;21.80;99.90;;;;;;4959820;28;20025;-72
2021/07/17 09:53:48;;;;;;;4.00;1.75;;;21.80;99.90;;;;;;4894129;29;20056;-72
2021/07/17 09:56:18;;;;;;;3.45;2.05;;;21.90;99.90;;;;;;4959736;28;20029;-72
2021/07/17 09:58:45;;;;;;;4.15;1.85;;;22.00;99.90;;;;;;4896710;28;20102;-72
2021/07/17 10:01:14;;;;;;;5.22;2.40;;;22.00;99.90;;;;;;4894418;29;20024;-72
2021/07/17 10:03:40;;;;;;;5.20;1.92;;;22.00;99.90;;;;;;4895169;29;20029;-71
2021/07/17 10:06:10;;;;;;;3.80;1.83;;;22.00;99.90;;;;;;4894913;29;20039;-71
2021/07/17 10:08:35;;;;;;;4.47;1.63;;;22.10;99.90;;;;;;4895251;29;20037;-71
2021/07/17 10:11:14;;;;;;;4.15;1.60;;;22.20;99.90;;;;;;4895109;29;20020;-71
2021/07/17 10:13:40;;;;;;;6.90;2.08;;;22.20;99.90;;;;;;4959069;28;20032;-71
2021/07/17 10:16:23;;;;;;;5.35;2.03;;;22.40;99.90;;;;;;4894952;29;20102;-71
2021/07/17 10:18:50;;;;;;;3.80;1.85;;;22.40;99.90;;;;;;4895251;29;20039;-77
2021/07/17 10:21:16;;;;;;;5.53;1.95;;;22.40;99.90;;;;;;4894032;29;20036;-74
2021/07/17 10:23:42;;;;;;;3.83;2.00;;;22.50;99.90;;;;;;4959497;28;20024;-72
2021/07/17 10:26:09;;;;;;;4.25;1.83;;;22.60;99.90;;;;;;4959086;28;20032;-72
2021/07/17 10:28:35;;;;;;;4.38;2.08;;;22.60;99.90;;;;;;4894288;29;20035;-70
2021/07/17 10:31:02;;;;;;;3.55;1.73;;;22.60;99.90;;;;;;4894896;29;20021;-70
2021/07/17 10:33:31;;;;;;;7.60;1.77;;;22.70;99.90;;;;;;4894456;29;20029;-73
2021/07/17 10:36:02;;;;;;;3.35;1.60;;;22.70;99.90;;;;;;4894106;29;20079;-71
2021/07/17 10:38:29;;;;;;;5.00;2.05;;;22.70;99.90;;;;;;4959233;28;20136;-72
2021/07/17 10:40:57;;;;;;;5.53;1.88;;;22.80;99.90;;;;;;4959109;28;20036;-73
2021/07/17 10:43:23;;;;;;;4.25;1.80;;;22.90;99.90;;;;;;4893750;29;20029;-73
2021/07/17 10:45:50;;;;;;;5.25;1.85;;;22.90;99.90;;;;;;4894880;29;20477;-72
2021/07/17 10:48:25;;;;;;;5.07;1.90;;;22.90;99.90;;;;;;4894699;29;20033;-72
2021/07/17 10:50:51;;;;;;;5.40;1.83;;;22.90;99.90;;;;;;4894669;29;20100;-72
2021/07/17 10:53:45;;;;;;;4.68;1.80;;;23.00;99.80;;;;;;4971878;28;20133;-73
2021/07/17 10:56:30;;;;;;;4.65;1.88;;;23.00;99.90;;;;;;4972793;28;20027;-72
2021/07/17 10:58:56;;;;;;;3.35;1.60;;;23.00;99.90;;;;;;4973800;28;20031;-72
2021/07/17 11:01:22;;;;;;;3.08;1.70;;;23.10;99.80;;;;;;4972176;28;20391;-72
2021/07/17 11:03:48;;;;;;;4.35;1.55;;;23.20;99.90;;;;;;4972896;28;20479;-72
2021/07/17 11:06:35;;;;;;;6.30;1.90;;;23.20;99.90;;;;;;4973281;28;20097;-73
2021/07/17 11:09:23;;;;;;;4.65;1.95;;;23.30;99.40;;;;;;4973635;28;20023;-71
2021/07/17 11:11:49;;;;;;;3.08;1.40;;;23.40;99.80;;;;;;4973361;28;20065;-72
2021/07/17 11:14:15;;;;;;;2.55;1.48;;;23.50;99.40;;;;;;4971499;28;20499;-72
2021/07/17 11:16:48;;;;;;;6.03;2.35;;;23.60;99.40;;;;;;4972836;28;20167;-73
2021/07/17 11:19:26;;;;;;;4.97;1.77;;;23.60;99.50;;;;;;4973394;28;20502;-72
2021/07/17 11:21:53;;;;;;;4.35;1.52;;;23.60;98.90;;;;;;4972366;28;20444;-73
2021/07/17 11:24:22;;;;;;;3.50;1.70;;;23.70;99.30;;;;;;4971261;28;20034;-72
2021/07/17 11:27:10;;;;;;;3.75;1.88;;;23.70;99.20;;;;;;4973362;28;20034;-71
2021/07/17 11:29:44;;;;;;;2.95;1.50;;;23.80;98.90;;;;;;4977075;28;20118;-72
2021/07/17 11:32:12;;;;;;;3.13;1.50;;;23.80;98.30;;;;;;4975866;28;20023;-72
2021/07/17 11:34:52;;;;;;;3.40;1.77;;;23.80;98.20;;;;;;4976697;28;20031;-72
2021/07/17 11:37:24;;;;;;;4.38;1.63;;;23.90;97.60;;;;;;4976570;28;20034;-72
2021/07/17 11:39:53;;;;;;;4.93;1.80;;;23.90;97.50;;;;;;4976123;28;20027;-72
2021/07/17 11:42:20;;;;;;;3.58;1.70;;;23.90;97.50;;;;;;4975208;28;20114;-72
2021/07/17 11:44:49;;;;;;;5.05;1.67;;;23.90;97.30;;;;;;4975944;28;20027;-83
2021/07/17 11:47:26;;;;;;;4.85;2.13;;;24.00;98.00;;;;;;4976265;28;20046;-75
2021/07/17 11:49:52;;;;;;;2.70;1.50;;;24.10;97.80;;;;;;4976600;28;20030;-72
2021/07/17 11:52:28;;;;;;;4.55;1.80;;;24.20;98.00;;;;;;4974295;28;20376;-72
2021/07/17 11:55:00;;;;;;;3.20;1.55;;;24.30;97.70;;;;;;4859865;29;20397;-72
2021/07/17 11:57:28;;;;;;;5.75;1.90;;;24.40;98.10;;;;;;4859783;29;20389;-72
2021/07/17 11:59:54;;;;;;;4.28;1.75;;;24.40;97.80;;;;;;4859118;29;20434;-73
2021/07/17 12:02:21;;;;;;;4.40;2.00;;;24.40;98.50;;;;;;4859534;29;20030;-73
2021/07/17 12:04:52;;;;;;;4.43;1.92;;;24.50;97.70;;;;;;4859872;29;20438;-71
2021/07/17 12:07:29;;;;;;;4.78;1.83;;;24.60;97.60;;;;;;4857495;29;20025;-73
2021/07/17 12:09:58;;;;;;;4.10;1.60;;;24.70;97.30;;;;;;4858566;29;20063;-72
2021/07/17 12:12:49;;;;;;;3.50;1.55;;;24.70;96.50;;;;;;4859280;29;20565;-72
2021/07/17 12:15:19;;;;;;;;;;;24.60;96.50;;;;;;4861740;29;20049;-72
2021/07/17 12:17:48;;;;;;;5.27;1.97;;;24.60;96.10;;;;;;4858452;29;19908;-72
2021/07/17 12:20:24;;;;;;;5.50;1.70;;;24.60;96.40;;;;;;4858698;29;20034;-74
2021/07/17 12:22:56;;;;;;;5.10;1.75;;;24.70;96.30;;;;;;4859452;29;20072;-72
2021/07/17 12:25:27;;;;;;;6.43;2.30;;;24.70;96.40;;;;;;4859406;29;20025;-72
2021/07/17 12:28:06;;;;;;;2.83;1.75;;;24.80;96.50;;;;;;4859085;29;20029;-72
2021/07/17 12:30:39;;;;;;;3.85;1.48;;;24.80;96.00;;;;;;4859558;29;20028;-72
2021/07/17 12:33:16;;;;;;;3.33;2.05;;;24.90;96.00;;;;;;4859429;29;20025;-72
2021/07/17 12:35:43;;;;;;;5.47;1.38;;;24.90;94.90;;;;;;4857439;29;20048;-71
2021/07/17 12:38:16;;;;;;;4.82;1.50;;;24.90;94.80;;;;;;4858939;29;20032;-72
2021/07/17 12:40:50;;;;;;;3.13;1.70;;;24.90;94.70;;;;;;4859659;29;20029;-72
2021/07/17 12:43:20;;;;;;;7.78;2.47;;;24.90;94.40;;;;;;4858822;29;20029;-71